LDSB/BWK METAR and TAF weather

Enter ICAO airport designator
Station Type Date Time Source
LDSB METAR 2021/09/21 14:00 UTC NOAA

LDSB 211400Z 34007KT 270V040 9999 FEW040 21/07 Q1022


Station Type Date Time Source
LDSB Decoded METAR 2021/09/21 14:00 UTC NOAA

Brac, Croatia (LDSB) 43-17-09N 016-40-47E
Sep 21, 2021 - 10:00 AM EDT / 2021.09.21 1400 UTC
Wind: from the NNW (340 degrees) at 8 MPH (7 KT) (direction variable):0
Visibility: greater than 7 mile(s):0
Sky conditions: mostly clear
Temperature: 69 F (21 C)
Dew Point: 44 F (7 C)
Relative Humidity: 40%
Pressure (altimeter): 30.18 in. Hg (1022 hPa)
ob: LDSB 211400Z 34007KT 270V040 9999 FEW040 21/07 Q1022
cycle: 14

Station Type Date Time Source
LDSB TAF 2021/09/21 12:27 UTC NOAA

TAF LDSB 211125Z 2112/2212 04008KT 9999 FEW050 TX22/2113Z TN14/2204Z
BECMG 2112/2114 29008KT
BECMG 2117/2119 03010KT
BECMG 2210/2212 32008KT

Example: see airport list